Time;durP1;ratioP1;P1;durP2;ratioP2;P2;SDS_P1;SDS_P2;PMS_P1;PMS_P2;Temp;Humidity;BMP_temperature;BMP_pressure;BME280_temperature;BME280_humidity;BME280_pressure;Samples;Min_cycle;Max_cycle;Signal;HPM_P1;HPM_P2
2024/02/01 00:06:15;;;;;;;0.20;0.20;;;;;;;4.57;67.52;101723.19;15783925;28;20408;-52
2024/02/01 00:13:53;;;;;;;0.00;0.00;;;;;;;4.88;66.45;101712.22;15778083;28;20131;-50
2024/02/01 00:21:27;;;;;;;0.00;0.00;;;;;;;4.43;67.31;101686.44;15797316;28;20173;-51
2024/02/01 00:29:03;;;;;;;0.00;0.00;;;;;;;4.73;66.34;101684.47;15788529;28;20051;-50
2024/02/01 00:36:40;;;;;;;0.30;0.30;;;;;;;5.21;65.08;101667.31;15785299;28;20044;-48
2024/02/01 00:44:15;;;;;;;0.20;0.20;;;;;;;5.04;65.12;101648.56;15803937;28;20459;-50
2024/02/01 00:51:49;;;;;;;0.52;0.52;;;;;;;4.96;65.09;101639.66;15801457;28;20040;-50
2024/02/01 00:59:25;;;;;;;0.00;0.00;;;;;;;5.22;64.33;101621.94;15812076;28;20044;-51
2024/02/01 01:06:59;;;;;;;0.32;0.25;;;;;;;5.18;64.65;101625.06;15793274;28;20044;-48
2024/02/01 01:14:33;;;;;;;0.00;0.00;;;;;;;5.12;64.73;101607.84;15799336;28;20040;-49
2024/02/01 01:22:08;;;;;;;0.00;0.00;;;;;;;5.26;64.18;101596.66;15811219;28;20048;-50
2024/02/01 01:29:44;;;;;;;0.00;0.00;;;;;;;5.30;64.27;101591.88;15808874;28;20507;-50
2024/02/01 01:37:23;;;;;;;0.93;0.85;;;;;;;5.40;64.13;101578.47;15780866;28;20060;-50
2024/02/01 01:44:58;;;;;;;;;;;;;;;5.52;63.38;101572.75;15779553;28;20051;-48
2024/02/01 01:52:34;;;;;;;0.00;0.00;;;;;;;5.67;63.55;101582.81;15767424;28;19920;-52
2024/02/01 02:00:11;;;;;;;0.00;0.00;;;;;;;5.91;62.91;101580.28;15798440;28;20472;-52
2024/02/01 02:07:44;;;;;;;0.28;0.28;;;;;;;5.32;64.24;101571.28;15773811;28;20385;-49
2024/02/01 02:15:21;;;;;;;0.80;0.80;;;;;;;5.36;64.79;101570.81;15768822;28;20058;-49
2024/02/01 02:22:56;;;;;;;0.10;0.10;;;;;;;5.61;64.89;101560.31;15783985;28;20047;-49
2024/02/01 02:30:31;;;;;;;1.55;0.52;;;;;;;5.52;66.76;101556.75;15758651;28;20078;-55
2024/02/01 02:38:06;;;;;;;0.00;0.00;;;;;;;5.35;69.92;101554.97;15795893;28;20062;-51
2024/02/01 02:45:43;;;;;;;0.20;0.20;;;;;;;5.09;72.77;101545.16;15797749;28;20040;-56
2024/02/01 02:53:18;;;;;;;;;;;;;;;4.97;75.33;101535.75;15791048;28;20086;-49
2024/02/01 03:00:52;;;;;;;0.03;0.03;;;;;;;5.00;76.23;101535.44;15786927;28;19928;-51
2024/02/01 03:08:31;;;;;;;1.52;0.45;;;;;;;5.17;76.29;101546.19;15797825;28;20151;-51
2024/02/01 03:16:16;;;;;;;0.68;0.50;;;;;;;4.60;77.76;101555.34;15763296;28;20101;-52
2024/02/01 03:23:58;;;;;;;0.00;0.00;;;;;;;4.56;79.66;101551.31;15792600;28;20060;-53
2024/02/01 03:31:34;;;;;;;0.25;0.25;;;;;;;4.59;79.89;101535.06;15803715;28;20066;-51
2024/02/01 03:39:23;;;;;;;0.00;0.00;;;;;;;4.22;81.94;101526.38;15772337;28;20037;-52
2024/02/01 03:46:57;;;;;;;0.00;0.00;;;;;;;4.28;81.97;101523.13;15804802;28;20044;-49
2024/02/01 03:54:33;;;;;;;0.00;0.00;;;;;;;4.29;82.09;101515.00;15805098;28;20408;-49
2024/02/01 04:02:14;;;;;;;0.22;0.22;;;;;;;4.21;83.33;101514.09;15808510;28;20037;-48
2024/02/01 04:09:50;;;;;;;0.10;0.10;;;;;;;4.35;83.31;101529.53;15799109;28;20077;-48
2024/02/01 04:17:26;;;;;;;0.05;0.05;;;;;;;4.39;83.22;101520.25;15797288;28;20074;-49
2024/02/01 04:25:01;;;;;;;0.08;0.08;;;;;;;4.50;83.06;101512.06;15795125;28;20048;-49
2024/02/01 04:32:36;;;;;;;0.47;0.47;;;;;;;4.42;84.37;101525.25;15792286;28;20039;-54
2024/02/01 04:40:12;;;;;;;0.85;0.65;;;;;;;4.67;84.39;101522.84;15778293;28;20204;-51
2024/02/01 04:47:46;;;;;;;0.00;0.00;;;;;;;4.37;86.40;101532.00;15774102;28;20048;-51
2024/02/01 04:55:22;;;;;;;1.08;0.95;;;;;;;4.61;85.68;101542.88;15761674;28;20052;-52
2024/02/01 05:02:56;;;;;;;0.00;0.00;;;;;;;4.46;88.29;101547.91;15758943;28;20076;-52
2024/02/01 05:10:32;;;;;;;0.00;0.00;;;;;;;4.58;87.40;101544.03;15805629;28;20055;-53
2024/02/01 05:18:05;;;;;;;0.00;0.00;;;;;;;4.68;88.21;101543.97;15784696;28;20036;-51
2024/02/01 05:25:41;;;;;;;0.03;0.03;;;;;;;5.19;86.98;101536.25;15798671;28;20464;-52
2024/02/01 05:33:14;;;;;;;0.17;0.17;;;;;;;5.32;87.58;101532.19;15778304;28;20035;-55
2024/02/01 05:40:49;;;;;;;;;;;;;;;5.20;87.50;101553.88;15805968;28;20047;-52
2024/02/01 05:48:26;;;;;;;1.08;0.73;;;;;;;5.09;88.85;101566.44;15779498;28;20395;-51
2024/02/01 05:56:02;;;;;;;0.25;0.25;;;;;;;5.31;87.06;101550.94;15785722;28;20067;-54
2024/02/01 06:03:35;;;;;;;0.15;0.13;;;;;;;5.38;87.54;101570.66;15780666;28;20381;-52
2024/02/01 06:11:14;;;;;;;0.00;0.00;;;;;;;5.44;88.46;101585.16;15794033;28;20118;-48
2024/02/01 06:18:48;;;;;;;0.25;0.25;;;;;;;5.33;88.54;101589.75;15781741;28;20040;-49
2024/02/01 06:26:25;;;;;;;0.25;0.25;;;;;;;5.33;88.69;101600.41;15793683;28;20036;-52
2024/02/01 06:34:00;;;;;;;1.05;0.52;;;;;;;5.38;88.60;101595.44;15793307;28;20117;-50
2024/02/01 06:41:49;;;;;;;0.47;0.20;;;;;;;5.62;87.96;101615.25;15775511;28;20044;-49
2024/02/01 06:49:39;;;;;;;0.28;0.28;;;;;;;5.63;88.25;101616.91;15800697;28;20150;-52
2024/02/01 06:57:18;;;;;;;0.30;0.30;;;;;;;5.86;87.99;101634.03;15768224;28;20051;-49
2024/02/01 07:04:53;;;;;;;0.30;0.28;;;;;;;5.78;87.94;101659.78;15790525;28;20052;-49
2024/02/01 07:12:42;;;;;;;0.00;0.00;;;;;;;5.89;87.72;101659.53;15800440;28;20440;-49
2024/02/01 07:20:23;;;;;;;0.98;0.98;;;;;;;5.78;87.21;101665.97;15800069;28;20074;-51
2024/02/01 07:59:26;;;;;;;0.00;0.00;;;;;;;6.50;85.24;101732.41;15774576;28;20141;-49
2024/02/01 08:14:52;;;;;;;0.00;0.00;;;;;;;6.86;81.72;101765.09;15799302;28;20048;-49
2024/02/01 08:22:26;;;;;;;0.30;0.30;;;;;;;7.00;81.17;101779.66;15797479;28;20040;-50
2024/02/01 08:30:12;;;;;;;;;;;;;;;6.58;83.02;101791.13;15776176;28;20086;-54
2024/02/01 08:37:47;;;;;;;0.03;0.03;;;;;;;7.01;81.29;101795.50;15811389;28;19920;-49
2024/02/01 08:45:22;;;;;;;0.20;0.20;;;;;;;7.19;81.36;101807.91;15827382;28;20048;-50
2024/02/01 08:52:56;;;;;;;0.80;0.68;;;;;;;7.06;80.25;101819.88;15786528;28;20033;-57
2024/02/01 09:00:32;;;;;;;0.00;0.00;;;;;;;7.09;80.28;101829.41;15806641;28;20036;-50
2024/02/01 09:08:07;;;;;;;0.00;0.00;;;;;;;7.63;76.51;101822.69;15807194;28;20542;-48
2024/02/01 09:15:43;;;;;;;0.00;0.00;;;;;;;7.96;74.58;101817.41;15807163;28;20058;-48
2024/02/01 09:23:17;;;;;;;0.38;0.38;;;;;;;8.39;71.54;101826.09;15787143;28;20042;-52
2024/02/01 09:30:55;;;;;;;0.00;0.00;;;;;;;8.91;68.32;101828.34;15805715;28;20455;-53
2024/02/01 09:38:28;;;;;;;0.35;0.32;;;;;;;8.87;67.75;101827.00;15804353;28;20144;-51
2024/02/01 09:46:08;;;;;;;0.00;0.00;;;;;;;9.05;66.87;101846.38;15804838;28;20488;-49
2024/02/01 09:53:43;;;;;;;0.00;0.00;;;;;;;8.92;65.03;101841.53;15805790;28;20052;-50
2024/02/01 10:01:24;;;;;;;0.00;0.00;;;;;;;9.05;64.08;101857.09;15788437;28;20139;-50
2024/02/01 10:09:14;;;;;;;0.45;0.05;;;;;;;9.89;61.25;101849.28;15786949;28;20496;-49
2024/02/01 10:16:50;;;;;;;0.10;0.10;;;;;;;9.95;61.27;101844.00;15797761;28;20051;-50
2024/02/01 10:24:24;;;;;;;0.00;0.00;;;;;;;10.82;58.01;101843.59;15803217;28;20089;-51
2024/02/01 10:32:04;;;;;;;0.00;0.00;;;;;;;10.75;57.71;101839.13;15803063;28;20076;-50
2024/02/01 10:39:50;;;;;;;1.50;1.40;;;;;;;10.22;55.67;101834.59;15803210;28;20404;-49
2024/02/01 10:47:33;;;;;;;0.40;0.40;;;;;;;10.12;56.32;101827.81;15810792;28;20540;-50
2024/02/01 10:55:09;;;;;;;0.00;0.00;;;;;;;10.85;52.64;101839.69;15803764;28;20060;-51
2024/02/01 11:02:52;;;;;;;0.00;0.00;;;;;;;10.54;53.11;101842.53;15803680;28;20046;-49
2024/02/01 11:10:34;;;;;;;0.00;0.00;;;;;;;10.12;52.35;101849.28;15775054;28;20036;-50
2024/02/01 11:18:19;;;;;;;0.00;0.00;;;;;;;10.68;51.24;101853.31;15802629;28;20454;-52
2024/02/01 11:25:56;;;;;;;0.00;0.00;;;;;;;9.99;50.94;101852.53;15782334;28;20056;-52
2024/02/01 11:33:34;;;;;;;0.00;0.00;;;;;;;10.87;50.22;101859.16;15782116;28;20047;-50
2024/02/01 11:41:22;;;;;;;0.43;0.20;;;;;;;10.18;51.23;101864.63;15793377;28;20036;-50
2024/02/01 11:48:58;;;;;;;0.00;0.00;;;;;;;10.76;49.97;101862.28;15800517;28;20413;-50
2024/02/01 11:56:35;;;;;;;0.00;0.00;;;;;;;11.27;48.49;101868.56;15793934;28;20032;-51
2024/02/01 12:04:10;;;;;;;0.00;0.00;;;;;;;10.98;48.94;101872.13;15797849;28;20048;-50
2024/02/01 12:11:45;;;;;;;0.00;0.00;;;;;;;9.50;53.00;101873.44;15814307;28;20125;-49
2024/02/01 12:19:23;;;;;;;0.00;0.00;;;;;;;10.95;50.50;101864.41;15810655;28;20048;-50
2024/02/01 12:26:57;;;;;;;0.00;0.00;;;;;;;12.23;46.84;101874.63;15775322;28;20048;-52
2024/02/01 12:34:37;;;;;;;0.00;0.00;;;;;;;12.37;47.80;101870.22;15792238;28;20040;-52
2024/02/01 12:42:14;;;;;;;0.45;0.45;;;;;;;10.56;49.54;101859.31;15794925;28;20040;-52
2024/02/01 12:49:51;;;;;;;1.45;0.32;;;;;;;10.75;49.35;101866.00;15821877;28;20117;-52
2024/02/01 12:57:28;;;;;;;0.00;0.00;;;;;;;9.02;51.86;101881.50;15798428;28;20064;-49
2024/02/01 13:05:09;;;;;;;0.00;0.00;;;;;;;8.84;53.14;101894.28;15812748;28;20075;-50
2024/02/01 13:12:54;;;;;;;0.00;0.00;;;;;;;10.40;49.25;101884.47;15790141;28;20173;-49
2024/02/01 13:20:29;;;;;;;0.00;0.00;;;;;;;10.23;50.81;101889.06;15806917;28;20392;-54
2024/02/01 13:28:03;;;;;;;0.35;0.35;;;;;;;10.39;50.03;101909.59;15795388;22;20121;-43
2024/02/01 13:35:38;;;;;;;0.08;0.08;;;;;;;10.07;49.62;101929.44;15796917;28;20606;-49
2024/02/01 13:43:12;;;;;;;0.35;0.35;;;;;;;8.87;52.70;101942.13;15797423;28;20052;-48
2024/02/01 13:50:48;;;;;;;0.00;0.00;;;;;;;8.45;53.43;101945.00;15749130;28;20115;-50
2024/02/01 13:58:22;;;;;;;0.00;0.00;;;;;;;8.48;53.64;101934.78;15732595;28;20086;-46
2024/02/01 14:05:57;;;;;;;;;;;;;;;8.36;54.04;101926.25;15764572;28;20052;-49
2024/02/01 14:13:30;;;;;;;0.00;0.00;;;;;;;8.24;54.42;101918.69;15793858;28;19953;-43
2024/02/01 14:21:08;;;;;;;0.50;0.05;;;;;;;8.29;53.93;101943.09;15794297;28;20135;-47
2024/02/01 14:28:41;;;;;;;0.00;0.00;;;;;;;8.14;54.42;101946.44;15745601;28;20063;-51
2024/02/01 14:36:24;;;;;;;0.00;0.00;;;;;;;7.84;56.20;101950.56;15731835;28;20123;-49
2024/02/01 14:44:00;;;;;;;0.10;0.10;;;;;;;8.21;55.26;101978.72;15713685;28;20102;-48
2024/02/01 14:51:39;;;;;;;0.10;0.10;;;;;;;7.91;55.88;101978.28;15722708;28;20072;-47
2024/02/01 14:59:12;;;;;;;0.10;0.10;;;;;;;8.13;55.69;101981.38;15730608;28;20120;-48
2024/02/01 15:06:50;;;;;;;27.20;1.65;;;;;;;7.89;56.88;101993.66;15712198;28;20500;-49
2024/02/01 15:14:26;;;;;;;0.00;0.00;;;;;;;7.93;57.06;102005.72;15731247;28;20087;-49
2024/02/01 15:22:01;;;;;;;0.00;0.00;;;;;;;7.91;56.28;102009.53;15735157;28;20124;-45
2024/02/01 15:29:42;;;;;;;0.00;0.00;;;;;;;7.83;56.12;102018.38;15771320;28;20465;-43
2024/02/01 15:37:19;;;;;;;0.00;0.00;;;;;;;7.35;57.24;102005.59;15792973;28;20043;-46
2024/02/01 15:44:55;;;;;;;0.05;0.05;;;;;;;7.58;57.14;102022.75;15797567;28;20146;-47
2024/02/01 15:52:31;;;;;;;;;;;;;;;7.40;57.58;102035.34;15761334;28;20381;-51
2024/02/01 16:00:08;;;;;;;0.00;0.00;;;;;;;7.10;58.39;102042.81;15804793;28;19920;-46
2024/02/01 16:07:47;;;;;;;0.00;0.00;;;;;;;6.95;61.69;102035.50;15804639;28;20036;-46
2024/02/01 16:15:39;;;;;;;0.10;0.10;;;;;;;6.89;61.52;102047.66;15785688;28;20032;-48
2024/02/01 16:23:19;;;;;;;0.00;0.00;;;;;;;6.87;60.29;102054.97;15798798;28;20048;-49
2024/02/01 16:30:55;;;;;;;1.20;1.10;;;;;;;6.90;60.82;102068.88;15720612;28;20045;-46
2024/02/01 16:38:34;;;;;;;0.85;0.68;;;;;;;6.98;60.54;102081.41;15738385;28;20447;-47
2024/02/01 16:46:38;;;;;;;0.00;0.00;;;;;;;7.10;59.62;102082.03;15737480;28;20386;-46
2024/02/01 16:54:15;;;;;;;0.00;0.00;;;;;;;7.03;60.31;102081.78;15735989;28;20041;-42
2024/02/01 17:01:53;;;;;;;0.00;0.00;;;;;;;6.81;60.87;102080.47;15737319;28;20097;-46
2024/02/01 17:09:36;;;;;;;0.00;0.00;;;;;;;6.82;60.39;102057.28;15713405;28;20072;-47
2024/02/01 17:17:24;;;;;;;0.00;0.00;;;;;;;6.87;60.85;102082.50;15739875;28;20243;-44
2024/02/01 17:25:02;;;;;;;0.68;0.45;;;;;;;6.41;62.04;102091.53;15731821;28;20377;-46
2024/02/01 17:32:36;;;;;;;0.00;0.00;;;;;;;6.85;60.88;102083.63;15738857;28;20032;-45
2024/02/01 17:40:14;;;;;;;0.00;0.00;;;;;;;6.58;61.67;102093.41;15738564;28;20091;-43
2024/02/01 17:47:53;;;;;;;1.25;1.02;;;;;;;6.81;61.30;102095.63;15714883;28;20069;-45
2024/02/01 17:55:42;;;;;;;0.30;0.30;;;;;;;6.37;63.29;102080.31;15683143;28;20130;-47
2024/02/01 18:03:17;;;;;;;0.15;0.15;;;;;;;6.19;63.49;102074.13;15681338;28;20037;-46
2024/02/01 18:10:53;;;;;;;0.00;0.00;;;;;;;6.33;63.60;102080.78;15731766;28;20044;-43
2024/02/01 18:18:32;;;;;;;0.00;0.00;;;;;;;6.20;64.22;102091.81;15731675;28;20044;-48
2024/02/01 18:26:11;;;;;;;0.00;0.00;;;;;;;5.97;65.19;102115.34;15724471;28;20064;-47
2024/02/01 18:33:50;;;;;;;0.00;0.00;;;;;;;6.01;65.52;102108.69;15784897;28;20064;-45
2024/02/01 18:41:30;;;;;;;0.00;0.00;;;;;;;6.23;65.06;102119.97;15794640;28;20048;-43
2024/02/01 18:49:04;;;;;;;0.03;0.03;;;;;;;6.03;65.82;102108.56;15760486;28;20053;-45
2024/02/01 18:56:42;;;;;;;2.05;0.80;;;;;;;5.79;66.54;102119.72;15731319;28;20489;-55
2024/02/01 19:04:23;;;;;;;1.25;1.10;;;;;;;5.81;67.08;102109.75;15747657;28;20268;-44
2024/02/01 19:12:01;;;;;;;0.68;0.65;;;;;;;6.22;65.75;102134.31;15791925;28;20036;-45
2024/02/01 19:19:35;;;;;;;0.00;0.00;;;;;;;5.93;66.78;102126.44;15783772;28;20036;-52
2024/02/01 19:27:19;;;;;;;0.00;0.00;;;;;;;5.86;66.81;102120.81;15806587;22;20052;-52
2024/02/01 19:34:52;;;;;;;0.00;0.00;;;;;;;5.68;68.12;102119.88;15797961;28;20396;-55
2024/02/01 19:42:27;;;;;;;0.00;0.00;;;;;;;5.90;67.35;102140.84;15780086;28;20047;-52
2024/02/01 19:50:05;;;;;;;0.00;0.00;;;;;;;5.87;67.61;102146.44;15797554;28;20048;-53
2024/02/01 19:57:40;;;;;;;0.47;0.47;;;;;;;5.80;68.09;102126.72;15780672;28;20515;-56
2024/02/01 20:05:14;;;;;;;0.10;0.10;;;;;;;5.92;68.71;102154.03;15797599;28;20040;-54
2024/02/01 20:12:52;;;;;;;0.15;0.15;;;;;;;5.76;69.76;102159.97;15776326;28;20041;-53
2024/02/01 20:20:28;;;;;;;0.77;0.73;;;;;;;5.80;69.49;102146.22;15793038;28;20396;-52
2024/02/01 20:28:04;;;;;;;2.53;1.08;;;;;;;5.70;69.94;102161.38;15767035;28;20111;-48
2024/02/01 20:35:41;;;;;;;0.03;0.03;;;;;;;5.91;68.87;102163.00;15800679;28;20090;-49
2024/02/01 20:43:20;;;;;;;0.00;0.00;;;;;;;5.93;68.16;102177.06;15791190;28;20044;-49
2024/02/01 20:50:56;;;;;;;0.00;0.00;;;;;;;5.96;67.92;102179.44;15765600;28;20305;-52
2024/02/01 20:58:50;;;;;;;0.00;0.00;;;;;;;5.92;67.88;102186.03;15776428;28;20389;-47
2024/02/01 21:06:25;;;;;;;0.63;0.30;;;;;;;5.62;69.15;102190.53;15811503;28;20040;-48
2024/02/01 21:14:06;;;;;;;0.65;0.60;;;;;;;5.70;68.61;102173.88;15808007;28;20035;-49
2024/02/01 21:21:40;;;;;;;0.10;0.10;;;;;;;5.70;69.02;102168.53;15804818;28;20051;-49
2024/02/01 21:29:18;;;;;;;0.00;0.00;;;;;;;5.45;69.68;102191.25;15752920;28;20061;-47
2024/02/01 21:37:06;;;;;;;0.00;0.00;;;;;;;5.60;69.10;102204.00;15775433;28;20055;-51
2024/02/01 21:44:46;;;;;;;1.23;1.13;;;;;;;5.35;70.45;102204.56;15803837;28;20047;-49
2024/02/01 21:52:21;;;;;;;2.22;2.10;;;;;;;5.25;70.76;102201.91;15785160;28;20456;-48
2024/02/01 21:59:57;;;;;;;0.03;0.03;;;;;;;5.22;70.99;102210.19;15797883;28;20139;-47
2024/02/01 22:07:32;;;;;;;0.00;0.00;;;;;;;5.12;71.27;102191.53;15804018;28;20032;-51
2024/02/01 22:15:11;;;;;;;0.10;0.10;;;;;;;5.14;71.47;102203.88;15784249;28;20105;-51
2024/02/01 22:22:46;;;;;;;0.00;0.00;;;;;;;4.81;71.43;102168.69;15798646;28;20416;-50
2024/02/01 22:30:20;;;;;;;0.08;0.08;;;;;;;5.12;71.60;102235.94;15782259;28;20047;-49
2024/02/01 22:37:54;;;;;;;1.42;1.33;;;;;;;4.94;72.42;102241.06;15776874;28;20044;-50
2024/02/01 22:45:29;;;;;;;1.63;1.52;;;;;;;4.89;72.69;102242.47;15783639;28;20044;-49
2024/02/01 22:53:03;;;;;;;0.00;0.00;;;;;;;4.82;73.18;102243.03;15753365;28;20047;-49
2024/02/01 23:00:39;;;;;;;0.05;0.05;;;;;;;4.97;72.86;102243.47;15796627;28;20040;-52
2024/02/01 23:08:13;;;;;;;0.00;0.00;;;;;;;4.76;73.47;102251.56;15792887;28;20401;-48
2024/02/01 23:15:50;;;;;;;0.00;0.00;;;;;;;4.70;73.95;102259.22;15774112;28;20397;-48
2024/02/01 23:23:23;;;;;;;0.55;0.55;;;;;;;4.69;74.20;102252.22;15792557;28;20079;-48
2024/02/01 23:30:59;;;;;;;0.00;0.00;;;;;;;4.78;73.73;102254.91;15795717;28;20032;-49
2024/02/01 23:38:33;;;;;;;3.40;0.20;;;;;;;4.84;73.94;102242.88;15785634;28;20520;-49
2024/02/01 23:46:08;;;;;;;2.30;1.85;;;;;;;4.97;73.72;102258.59;15790522;28;20048;-55
2024/02/01 23:53:43;;;;;;;0.00;0.00;;;;;;;4.84;73.83;102246.38;15790653;28;20052;-49
